Otwell, Indiana
Current Conditions -  °F | °C
As of 11:15 AM on Saturday 25 Oct 2014 (Local Time) from KHNB Reporting Station
Clear Clear  
Wind Chill: 68°   Ceiling: Unl
Heat Index: 68°   Visibility: 10mi
Dew Point: 59°   Wind: 5mph
Humidity: 73%   Direction: 290°WNW
Pressure: 30.02"   Gusts: NA
Location:  38.45°N, 87.09°W
Report Text: KHNB 251615Z AUTO 29004KT 10SM CLR 20/15 A3002 RMK AO1
Loading
Personal Weather Stations






























Interactive Weather Map
Tropical Storm Tracking
New forecast layout! Learn more

10-Day Weather Forecast

Advertisements
Track Severe Weather on mobile